sensor_id;sensor_type;location;lat;lon;timestamp;temperature;humidity
1888;DHT22;944;51.574;6.980;2022-08-19T01:55:38;18.00;99.90
1888;DHT22;944;51.574;6.980;2022-08-19T01:58:27;18.00;99.90
1888;DHT22;944;51.574;6.980;2022-08-19T02:01:24;18.00;99.90
1888;DHT22;944;51.574;6.980;2022-08-19T02:07:11;18.00;99.90
1888;DHT22;944;51.574;6.980;2022-08-19T02:10:19;18.10;99.90
1888;DHT22;944;51.574;6.980;2022-08-19T02:16:49;17.90;99.90
1888;DHT22;944;51.574;6.980;2022-08-19T02:20:00;18.00;99.90
1888;DHT22;944;51.574;6.980;2022-08-19T02:22:34;17.70;99.90
1888;DHT22;944;51.574;6.980;2022-08-19T02:25:14;17.80;99.90
1888;DHT22;944;51.574;6.980;2022-08-19T02:28:20;17.80;99.90
1888;DHT22;944;51.574;6.980;2022-08-19T02:31:17;17.70;99.90
1888;DHT22;944;51.574;6.980;2022-08-19T02:34:28;17.60;99.90
1888;DHT22;944;51.574;6.980;2022-08-19T02:37:21;17.70;99.90
1888;DHT22;944;51.574;6.980;2022-08-19T02:40:17;17.70;99.90
1888;DHT22;944;51.574;6.980;2022-08-19T02:43:23;17.70;99.90
1888;DHT22;944;51.574;6.980;2022-08-19T02:46:28;17.50;99.90
1888;DHT22;944;51.574;6.980;2022-08-19T02:49:42;17.70;99.90
1888;DHT22;944;51.574;6.980;2022-08-19T02:52:43;17.50;99.90
1888;DHT22;944;51.574;6.980;2022-08-19T02:55:25;17.70;99.90
1888;DHT22;944;51.574;6.980;2022-08-19T03:02:01;17.50;99.90
1888;DHT22;944;51.574;6.980;2022-08-19T03:04:46;17.40;99.90
1888;DHT22;944;51.574;6.980;2022-08-19T03:07:55;17.50;99.90
1888;DHT22;944;51.574;6.980;2022-08-19T03:14:29;17.40;99.90
1888;DHT22;944;51.574;6.980;2022-08-19T03:34:02;17.40;99.90
1888;DHT22;944;51.574;6.980;2022-08-19T03:37:14;17.30;99.90
1888;DHT22;944;51.574;6.980;2022-08-19T03:39:59;17.40;99.90
1888;DHT22;944;51.574;6.980;2022-08-19T03:43:20;17.30;99.90
1888;DHT22;944;51.574;6.980;2022-08-19T03:46:25;17.30;99.90
1888;DHT22;944;51.574;6.980;2022-08-19T03:49:34;17.40;99.90
1888;DHT22;944;51.574;6.980;2022-08-19T03:52:27;17.30;99.90
1888;DHT22;944;51.574;6.980;2022-08-19T03:55:03;17.20;99.90
1888;DHT22;944;51.574;6.980;2022-08-19T03:57:58;17.20;99.90
1888;DHT22;944;51.574;6.980;2022-08-19T04:00:44;17.10;99.90
1888;DHT22;944;51.574;6.980;2022-08-19T04:03:16;17.20;99.90
1888;DHT22;944;51.574;6.980;2022-08-19T04:06:08;17.30;99.90
1888;DHT22;944;51.574;6.980;2022-08-19T04:08:37;17.10;99.90
1888;DHT22;944;51.574;6.980;2022-08-19T04:11:13;17.10;99.90
1888;DHT22;944;51.574;6.980;2022-08-19T04:13:53;17.10;99.90
1888;DHT22;944;51.574;6.980;2022-08-19T04:16:37;17.00;99.90
1888;DHT22;944;51.574;6.980;2022-08-19T04:19:25;17.20;99.90
1888;DHT22;944;51.574;6.980;2022-08-19T08:07:29;24.50;99.90
1888;DHT22;944;51.574;6.980;2022-08-19T08:10:33;24.70;99.90
1888;DHT22;944;51.574;6.980;2022-08-19T08:13:13;24.70;99.90
1888;DHT22;944;51.574;6.980;2022-08-19T08:15:42;24.80;99.90
1888;DHT22;944;51.574;6.980;2022-08-19T08:18:10;24.90;99.90
1888;DHT22;944;51.574;6.980;2022-08-19T08:20:38;25.20;99.90
1888;DHT22;944;51.574;6.980;2022-08-19T08:23:06;25.30;99.90
1888;DHT22;944;51.574;6.980;2022-08-19T08:25:52;25.60;99.90
1888;DHT22;944;51.574;6.980;2022-08-19T08:28:22;25.90;99.90
1888;DHT22;944;51.574;6.980;2022-08-19T08:30:49;25.60;99.90
1888;DHT22;944;51.574;6.980;2022-08-19T08:33:18;25.60;99.90
1888;DHT22;944;51.574;6.980;2022-08-19T08:39:28;26.10;99.90
1888;DHT22;944;51.574;6.980;2022-08-19T08:42:05;26.40;99.90
1888;DHT22;944;51.574;6.980;2022-08-19T08:44:51;26.60;99.90
1888;DHT22;944;51.574;6.980;2022-08-19T08:47:24;26.50;99.90
1888;DHT22;944;51.574;6.980;2022-08-19T08:50:13;26.00;99.90
1888;DHT22;944;51.574;6.980;2022-08-19T08:52:47;25.50;99.90
1888;DHT22;944;51.574;6.980;2022-08-19T08:55:22;25.40;99.90
1888;DHT22;944;51.574;6.980;2022-08-19T08:57:54;24.80;99.90
1888;DHT22;944;51.574;6.980;2022-08-19T09:00:26;25.00;99.90
1888;DHT22;944;51.574;6.980;2022-08-19T09:02:57;25.30;99.90
1888;DHT22;944;51.574;6.980;2022-08-19T09:05:33;25.80;99.90
1888;DHT22;944;51.574;6.980;2022-08-19T09:08:08;25.80;99.90
1888;DHT22;944;51.574;6.980;2022-08-19T09:10:46;26.20;99.90
1888;DHT22;944;51.574;6.980;2022-08-19T09:13:22;26.20;99.90
1888;DHT22;944;51.574;6.980;2022-08-19T09:16:02;26.50;99.90
1888;DHT22;944;51.574;6.980;2022-08-19T09:18:39;26.30;99.90
1888;DHT22;944;51.574;6.980;2022-08-19T09:21:07;26.30;99.90
1888;DHT22;944;51.574;6.980;2022-08-19T09:23:34;26.10;99.90
1888;DHT22;944;51.574;6.980;2022-08-19T09:26:07;25.80;99.90
1888;DHT22;944;51.574;6.980;2022-08-19T09:28:35;25.60;99.90
1888;DHT22;944;51.574;6.980;2022-08-19T09:31:02;25.40;99.90
1888;DHT22;944;51.574;6.980;2022-08-19T09:33:29;25.40;99.90
1888;DHT22;944;51.574;6.980;2022-08-19T09:36:03;25.10;99.90
1888;DHT22;944;51.574;6.980;2022-08-19T09:38:35;24.80;99.90
1888;DHT22;944;51.574;6.980;2022-08-19T09:41:08;24.90;99.90
1888;DHT22;944;51.574;6.980;2022-08-19T09:43:39;25.20;99.90
1888;DHT22;944;51.574;6.980;2022-08-19T09:46:08;25.20;99.90
1888;DHT22;944;51.574;6.980;2022-08-19T09:48:36;25.30;99.90
1888;DHT22;944;51.574;6.980;2022-08-19T09:51:04;25.20;99.90
1888;DHT22;944;51.574;6.980;2022-08-19T09:53:33;25.20;99.90
1888;DHT22;944;51.574;6.980;2022-08-19T09:56:00;25.10;99.90
1888;DHT22;944;51.574;6.980;2022-08-19T09:58:29;25.40;99.90
1888;DHT22;944;51.574;6.980;2022-08-19T10:00:57;25.40;99.90
1888;DHT22;944;51.574;6.980;2022-08-19T10:03:26;25.40;99.90
1888;DHT22;944;51.574;6.980;2022-08-19T10:05:54;25.50;99.90
1888;DHT22;944;51.574;6.980;2022-08-19T10:08:24;25.60;99.90
1888;DHT22;944;51.574;6.980;2022-08-19T10:10:54;25.40;99.90
1888;DHT22;944;51.574;6.980;2022-08-19T10:13:24;25.20;99.90
1888;DHT22;944;51.574;6.980;2022-08-19T10:15:55;25.10;99.90
1888;DHT22;944;51.574;6.980;2022-08-19T10:18:24;25.30;99.90
1888;DHT22;944;51.574;6.980;2022-08-19T10:20:52;25.60;99.90
1888;DHT22;944;51.574;6.980;2022-08-19T10:23:20;25.60;99.90
1888;DHT22;944;51.574;6.980;2022-08-19T10:25:48;25.70;99.90
1888;DHT22;944;51.574;6.980;2022-08-19T10:28:19;25.60;99.90
1888;DHT22;944;51.574;6.980;2022-08-19T10:30:48;25.70;99.90
1888;DHT22;944;51.574;6.980;2022-08-19T10:33:16;25.50;99.90
1888;DHT22;944;51.574;6.980;2022-08-19T10:35:43;25.60;99.90
1888;DHT22;944;51.574;6.980;2022-08-19T10:38:12;25.60;99.90
1888;DHT22;944;51.574;6.980;2022-08-19T10:40:39;25.60;99.90
1888;DHT22;944;51.574;6.980;2022-08-19T10:43:06;25.60;99.90
1888;DHT22;944;51.574;6.980;2022-08-19T10:45:32;25.60;99.90
1888;DHT22;944;51.574;6.980;2022-08-19T10:47:59;25.40;99.90
1888;DHT22;944;51.574;6.980;2022-08-19T10:50:28;25.40;99.90
1888;DHT22;944;51.574;6.980;2022-08-19T10:53:12;25.60;99.90
1888;DHT22;944;51.574;6.980;2022-08-19T10:55:39;25.60;99.90
1888;DHT22;944;51.574;6.980;2022-08-19T10:58:29;25.80;99.90
1888;DHT22;944;51.574;6.980;2022-08-19T11:01:07;26.20;99.90
1888;DHT22;944;51.574;6.980;2022-08-19T11:03:34;26.30;99.90
1888;DHT22;944;51.574;6.980;2022-08-19T11:06:11;26.50;99.90
1888;DHT22;944;51.574;6.980;2022-08-19T11:08:38;26.60;99.90
1888;DHT22;944;51.574;6.980;2022-08-19T11:11:06;26.20;99.90
1888;DHT22;944;51.574;6.980;2022-08-19T11:13:39;25.70;99.90
1888;DHT22;944;51.574;6.980;2022-08-19T11:16:12;25.50;99.90
1888;DHT22;944;51.574;6.980;2022-08-19T11:22:32;25.20;99.90
1888;DHT22;944;51.574;6.980;2022-08-19T11:25:04;25.20;99.90
1888;DHT22;944;51.574;6.980;2022-08-19T11:27:42;25.40;99.90
1888;DHT22;944;51.574;6.980;2022-08-19T11:30:12;25.80;99.90
1888;DHT22;944;51.574;6.980;2022-08-19T11:32:41;25.70;99.90
1888;DHT22;944;51.574;6.980;2022-08-19T11:35:08;25.80;99.90
1888;DHT22;944;51.574;6.980;2022-08-19T11:37:38;25.90;99.90
1888;DHT22;944;51.574;6.980;2022-08-19T11:40:07;26.00;99.90
1888;DHT22;944;51.574;6.980;2022-08-19T11:42:35;26.20;99.90
1888;DHT22;944;51.574;6.980;2022-08-19T11:45:19;26.30;99.90
1888;DHT22;944;51.574;6.980;2022-08-19T11:47:46;26.20;99.90
1888;DHT22;944;51.574;6.980;2022-08-19T11:50:13;26.30;99.90
1888;DHT22;944;51.574;6.980;2022-08-19T11:52:42;26.50;99.90
1888;DHT22;944;51.574;6.980;2022-08-19T11:58:22;26.70;99.90
1888;DHT22;944;51.574;6.980;2022-08-19T12:00:50;26.60;99.90
1888;DHT22;944;51.574;6.980;2022-08-19T12:03:19;26.50;99.90
1888;DHT22;944;51.574;6.980;2022-08-19T12:05:55;26.70;99.90
1888;DHT22;944;51.574;6.980;2022-08-19T12:08:24;26.70;99.90
1888;DHT22;944;51.574;6.980;2022-08-19T12:10:52;26.70;99.90
1888;DHT22;944;51.574;6.980;2022-08-19T12:13:55;26.70;99.90
1888;DHT22;944;51.574;6.980;2022-08-19T12:16:26;26.70;99.90
1888;DHT22;944;51.574;6.980;2022-08-19T12:18:54;26.80;99.90
1888;DHT22;944;51.574;6.980;2022-08-19T12:21:27;26.70;99.90
1888;DHT22;944;51.574;6.980;2022-08-19T12:27:19;26.00;99.90
1888;DHT22;944;51.574;6.980;2022-08-19T12:29:46;25.80;99.90
1888;DHT22;944;51.574;6.980;2022-08-19T12:32:40;25.80;99.90
1888;DHT22;944;51.574;6.980;2022-08-19T12:35:08;26.00;99.90
1888;DHT22;944;51.574;6.980;2022-08-19T12:41:18;26.40;99.90
1888;DHT22;944;51.574;6.980;2022-08-19T12:43:47;26.40;99.90
1888;DHT22;944;51.574;6.980;2022-08-19T12:46:15;26.50;99.90
1888;DHT22;944;51.574;6.980;2022-08-19T12:48:44;26.60;99.90
1888;DHT22;944;51.574;6.980;2022-08-19T12:51:15;26.90;99.90
1888;DHT22;944;51.574;6.980;2022-08-19T12:53:46;27.00;99.90
1888;DHT22;944;51.574;6.980;2022-08-19T12:56:14;27.00;99.90
1888;DHT22;944;51.574;6.980;2022-08-19T12:58:43;27.00;99.90
1888;DHT22;944;51.574;6.980;2022-08-19T13:01:13;27.00;99.90
1888;DHT22;944;51.574;6.980;2022-08-19T13:03:41;27.20;99.90
1888;DHT22;944;51.574;6.980;2022-08-19T13:06:11;27.40;99.90
1888;DHT22;944;51.574;6.980;2022-08-19T13:08:39;27.30;99.90
1888;DHT22;944;51.574;6.980;2022-08-19T13:11:09;27.20;99.90
1888;DHT22;944;51.574;6.980;2022-08-19T13:13:40;27.40;99.90
1888;DHT22;944;51.574;6.980;2022-08-19T13:16:10;27.60;99.90
1888;DHT22;944;51.574;6.980;2022-08-19T13:18:38;27.70;99.90
1888;DHT22;944;51.574;6.980;2022-08-19T13:21:08;27.80;99.90
1888;DHT22;944;51.574;6.980;2022-08-19T13:23:37;27.60;99.90
1888;DHT22;944;51.574;6.980;2022-08-19T13:26:06;27.60;99.90
1888;DHT22;944;51.574;6.980;2022-08-19T13:28:34;27.40;99.90
1888;DHT22;944;51.574;6.980;2022-08-19T13:31:22;27.20;99.90
1888;DHT22;944;51.574;6.980;2022-08-19T13:34:08;27.10;99.90
1888;DHT22;944;51.574;6.980;2022-08-19T13:36:37;27.10;99.90
1888;DHT22;944;51.574;6.980;2022-08-19T13:39:25;27.10;99.90
1888;DHT22;944;51.574;6.980;2022-08-19T13:41:54;27.20;99.90
1888;DHT22;944;51.574;6.980;2022-08-19T13:44:32;27.20;99.90
1888;DHT22;944;51.574;6.980;2022-08-19T13:47:05;27.30;99.90
1888;DHT22;944;51.574;6.980;2022-08-19T13:49:35;27.30;99.90
1888;DHT22;944;51.574;6.980;2022-08-19T13:52:06;27.30;99.90
1888;DHT22;944;51.574;6.980;2022-08-19T13:54:34;27.30;99.90
1888;DHT22;944;51.574;6.980;2022-08-19T13:57:01;27.30;99.90
1888;DHT22;944;51.574;6.980;2022-08-19T13:59:28;27.30;99.90
1888;DHT22;944;51.574;6.980;2022-08-19T14:01:58;27.30;99.90
1888;DHT22;944;51.574;6.980;2022-08-19T14:04:27;27.30;99.90
1888;DHT22;944;51.574;6.980;2022-08-19T14:06:57;27.20;99.90
1888;DHT22;944;51.574;6.980;2022-08-19T14:09:24;27.20;99.90
1888;DHT22;944;51.574;6.980;2022-08-19T14:11:50;27.10;99.90
1888;DHT22;944;51.574;6.980;2022-08-19T14:14:19;27.10;99.90
1888;DHT22;944;51.574;6.980;2022-08-19T14:16:46;27.30;99.90
1888;DHT22;944;51.574;6.980;2022-08-19T14:19:17;27.20;99.90
1888;DHT22;944;51.574;6.980;2022-08-19T14:21:46;27.20;99.90
1888;DHT22;944;51.574;6.980;2022-08-19T14:24:13;27.40;99.90
1888;DHT22;944;51.574;6.980;2022-08-19T14:26:40;27.40;99.90
1888;DHT22;944;51.574;6.980;2022-08-19T14:29:07;27.50;99.90
1888;DHT22;944;51.574;6.980;2022-08-19T14:31:34;27.40;99.90
1888;DHT22;944;51.574;6.980;2022-08-19T14:34:06;27.30;99.90
1888;DHT22;944;51.574;6.980;2022-08-19T14:36:35;27.50;99.90
1888;DHT22;944;51.574;6.980;2022-08-19T14:39:05;27.40;99.90
1888;DHT22;944;51.574;6.980;2022-08-19T14:41:32;27.30;99.90
1888;DHT22;944;51.574;6.980;2022-08-19T14:43:59;27.40;99.90
1888;DHT22;944;51.574;6.980;2022-08-19T14:46:29;27.50;99.90
1888;DHT22;944;51.574;6.980;2022-08-19T14:48:58;27.40;99.90
1888;DHT22;944;51.574;6.980;2022-08-19T14:51:25;27.40;99.90
1888;DHT22;944;51.574;6.980;2022-08-19T14:57:43;27.00;99.90
1888;DHT22;944;51.574;6.980;2022-08-19T15:11:35;27.40;99.90
1888;DHT22;944;51.574;6.980;2022-08-19T16:07:18;26.70;99.90
1888;DHT22;944;51.574;6.980;2022-08-19T16:13:37;26.50;99.90
1888;DHT22;944;51.574;6.980;2022-08-19T20:46:41;21.70;99.90
1888;DHT22;944;51.574;6.980;2022-08-19T20:49:15;21.70;99.90
1888;DHT22;944;51.574;6.980;2022-08-19T20:51:48;21.60;99.90
1888;DHT22;944;51.574;6.980;2022-08-19T20:54:21;21.60;99.90
1888;DHT22;944;51.574;6.980;2022-08-19T20:56:57;21.50;99.90
1888;DHT22;944;51.574;6.980;2022-08-19T20:59:28;21.50;99.90
1888;DHT22;944;51.574;6.980;2022-08-19T21:01:56;21.50;99.90
1888;DHT22;944;51.574;6.980;2022-08-19T21:04:27;21.50;99.90
1888;DHT22;944;51.574;6.980;2022-08-19T21:06:55;21.50;99.90
1888;DHT22;944;51.574;6.980;2022-08-19T21:09:22;21.50;99.90
1888;DHT22;944;51.574;6.980;2022-08-19T21:11:50;21.40;99.90
1888;DHT22;944;51.574;6.980;2022-08-19T21:14:18;21.40;99.90
1888;DHT22;944;51.574;6.980;2022-08-19T21:16:45;21.40;99.90
1888;DHT22;944;51.574;6.980;2022-08-19T21:19:15;21.40;99.90
1888;DHT22;944;51.574;6.980;2022-08-19T21:21:42;21.40;99.90
1888;DHT22;944;51.574;6.980;2022-08-19T21:24:09;21.40;99.90
1888;DHT22;944;51.574;6.980;2022-08-19T21:26:36;21.40;99.90
1888;DHT22;944;51.574;6.980;2022-08-19T21:29:03;21.40;99.90
1888;DHT22;944;51.574;6.980;2022-08-19T21:31:30;21.40;99.90
1888;DHT22;944;51.574;6.980;2022-08-19T21:33:57;21.40;99.90
1888;DHT22;944;51.574;6.980;2022-08-19T21:36:26;21.30;99.90
1888;DHT22;944;51.574;6.980;2022-08-19T21:38:53;21.40;99.90
1888;DHT22;944;51.574;6.980;2022-08-19T21:41:20;21.50;99.90
1888;DHT22;944;51.574;6.980;2022-08-19T21:43:48;21.50;99.90
1888;DHT22;944;51.574;6.980;2022-08-19T21:46:15;21.60;99.90
1888;DHT22;944;51.574;6.980;2022-08-19T21:48:42;21.50;99.90
1888;DHT22;944;51.574;6.980;2022-08-19T21:51:12;21.60;99.90
1888;DHT22;944;51.574;6.980;2022-08-19T21:53:40;21.70;99.90
1888;DHT22;944;51.574;6.980;2022-08-19T21:56:07;21.70;99.90
1888;DHT22;944;51.574;6.980;2022-08-19T21:58:35;21.70;99.90
1888;DHT22;944;51.574;6.980;2022-08-19T22:01:06;21.70;99.90
1888;DHT22;944;51.574;6.980;2022-08-19T22:03:33;21.80;99.90
1888;DHT22;944;51.574;6.980;2022-08-19T22:06:03;21.70;99.90
1888;DHT22;944;51.574;6.980;2022-08-19T22:08:30;21.60;99.90
1888;DHT22;944;51.574;6.980;2022-08-19T22:10:59;21.40;99.90
1888;DHT22;944;51.574;6.980;2022-08-19T22:13:27;21.50;99.90
1888;DHT22;944;51.574;6.980;2022-08-19T22:16:00;21.50;99.90
1888;DHT22;944;51.574;6.980;2022-08-19T22:18:27;21.50;99.90
1888;DHT22;944;51.574;6.980;2022-08-19T22:20:59;21.50;99.90
1888;DHT22;944;51.574;6.980;2022-08-19T22:23:26;21.50;99.90
1888;DHT22;944;51.574;6.980;2022-08-19T22:25:53;21.40;99.90
1888;DHT22;944;51.574;6.980;2022-08-19T22:28:21;21.40;99.90
1888;DHT22;944;51.574;6.980;2022-08-19T22:30:52;21.40;99.90
1888;DHT22;944;51.574;6.980;2022-08-19T22:37:00;21.40;99.90
1888;DHT22;944;51.574;6.980;2022-08-19T22:39:27;21.40;99.90
1888;DHT22;944;51.574;6.980;2022-08-19T22:41:54;21.20;99.90
1888;DHT22;944;51.574;6.980;2022-08-19T22:44:23;21.10;99.90
1888;DHT22;944;51.574;6.980;2022-08-19T22:46:50;21.20;99.90
1888;DHT22;944;51.574;6.980;2022-08-19T22:49:18;21.20;99.90
1888;DHT22;944;51.574;6.980;2022-08-19T22:51:45;21.10;99.90
1888;DHT22;944;51.574;6.980;2022-08-19T22:54:29;21.10;99.90
1888;DHT22;944;51.574;6.980;2022-08-19T22:56:58;20.90;99.90
1888;DHT22;944;51.574;6.980;2022-08-19T22:59:28;21.00;99.90
1888;DHT22;944;51.574;6.980;2022-08-19T23:01:58;21.00;99.90
1888;DHT22;944;51.574;6.980;2022-08-19T23:04:25;21.00;99.90
1888;DHT22;944;51.574;6.980;2022-08-19T23:06:52;21.00;99.90
1888;DHT22;944;51.574;6.980;2022-08-19T23:09:21;21.00;99.90
1888;DHT22;944;51.574;6.980;2022-08-19T23:11:48;21.10;99.90
1888;DHT22;944;51.574;6.980;2022-08-19T23:14:16;20.90;99.90
1888;DHT22;944;51.574;6.980;2022-08-19T23:16:45;20.80;99.90
1888;DHT22;944;51.574;6.980;2022-08-19T23:19:16;20.90;99.90
1888;DHT22;944;51.574;6.980;2022-08-19T23:21:43;20.90;99.90
1888;DHT22;944;51.574;6.980;2022-08-19T23:24:11;20.90;99.90
1888;DHT22;944;51.574;6.980;2022-08-19T23:26:40;20.90;99.90
